Time;durP1;ratioP1;P1;durP2;ratioP2;P2;SDS_P1;SDS_P2;PMS_P1;PMS_P2;Temp;Humidity;BMP_temperature;BMP_pressure;BME280_temperature;BME280_humidity;BME280_pressure;Samples;Min_cycle;Max_cycle;Signal;HPM_P1;HPM_P2
2022/09/25 00:00:46;;;;;;;9.30;3.10;;;;;;;20.69;43.53;101721.31;5033075;28;20124;-82
2022/09/25 00:03:12;;;;;;;9.60;3.20;;;;;;;20.80;43.02;101719.09;5033655;28;20608;-82
2022/09/25 00:05:39;;;;;;;12.30;3.87;;;;;;;20.33;44.28;101714.66;5033373;28;20026;-82
2022/09/25 00:08:06;;;;;;;10.47;4.10;;;;;;;20.31;44.06;101731.56;5033856;28;20025;-83
2022/09/25 00:10:32;;;;;;;7.23;3.67;;;;;;;20.26;44.31;101733.50;5033571;28;20064;-83
2022/09/25 00:12:57;;;;;;;14.93;4.77;;;;;;;20.39;43.37;101729.50;5032631;28;20048;-82
2022/09/25 00:15:23;;;;;;;8.03;3.63;;;;;;;20.36;43.88;101736.69;5033754;28;20409;-82
2022/09/25 00:17:48;;;;;;;7.60;4.00;;;;;;;20.21;43.89;101732.81;5033443;28;20131;-83
2022/09/25 00:20:22;;;;;;;8.67;3.93;;;;;;;20.20;44.32;101739.91;5032631;28;20041;-82
2022/09/25 00:22:49;;;;;;;7.53;3.53;;;;;;;20.20;43.92;101744.38;5033161;28;20537;-83
2022/09/25 00:25:15;;;;;;;7.93;3.43;;;;;;;20.32;43.38;101746.56;5033331;28;20021;-83
2022/09/25 00:27:42;;;;;;;8.73;3.93;;;;;;;20.14;43.81;101742.75;5032503;28;20029;-83
2022/09/25 00:30:10;;;;;;;9.93;4.13;;;;;;;20.01;44.04;101734.38;5033331;28;20025;-83
2022/09/25 00:32:36;;;;;;;9.17;3.80;;;;;;;19.99;44.27;101736.25;5033098;28;20026;-82
2022/09/25 00:35:01;;;;;;;8.13;3.93;;;;;;;20.06;44.48;101743.06;5032436;28;20033;-83
2022/09/25 00:37:27;;;;;;;7.77;3.40;;;;;;;20.05;44.21;101741.31;5032858;28;20048;-83
2022/09/25 00:39:54;;;;;;;8.47;3.77;;;;;;;19.95;44.81;101742.59;5032990;28;20075;-83
2022/09/25 00:42:20;;;;;;;6.87;3.67;;;;;;;20.07;44.52;101743.91;5032762;28;20484;-83
2022/09/25 00:44:56;;;;;;;10.07;3.60;;;;;;;20.24;43.90;101746.84;5031720;28;20049;-83
2022/09/25 00:47:39;;;;;;;6.03;3.30;;;;;;;20.13;44.38;101738.41;5032927;28;20036;-82
2022/09/25 00:50:30;;;;;;;7.13;3.50;;;;;;;20.16;43.98;101739.13;5032504;28;20028;-83
2022/09/25 00:53:04;;;;;;;8.50;3.20;;;;;;;19.98;44.27;101742.47;5032542;28;20071;-82
2022/09/25 00:55:31;;;;;;;8.70;3.27;;;;;;;20.16;43.89;101743.59;5032455;28;20029;-82
2022/09/25 00:58:00;;;;;;;8.83;3.63;;;;;;;19.81;45.22;101735.97;5032448;28;20029;-82
2022/09/25 01:00:25;;;;;;;6.47;3.17;;;;;;;19.99;44.43;101736.25;5032494;28;20025;-82
2022/09/25 01:02:53;;;;;;;10.73;3.73;;;;;;;19.98;44.80;101739.81;5032207;28;20083;-82
2022/09/25 01:05:32;;;;;;;7.23;3.63;;;;;;;20.19;44.06;101743.47;5033779;28;20029;-82
2022/09/25 01:08:00;;;;;;;9.43;3.80;;;;;;;19.99;44.44;101746.84;5032312;28;20025;-82
2022/09/25 01:10:26;;;;;;;8.13;3.93;;;;;;;20.13;43.84;101739.25;5032476;28;20302;-82
2022/09/25 01:12:54;;;;;;;7.77;3.87;;;;;;;19.94;44.78;101732.88;5032227;28;20025;-82
2022/09/25 01:15:27;;;;;;;8.97;3.47;;;;;;;19.63;44.78;101725.94;5032241;28;20025;-82
2022/09/25 01:18:09;;;;;;;6.97;3.17;;;;;;;20.12;43.97;101732.22;5031948;28;20083;-82
2022/09/25 01:20:58;;;;;;;11.70;3.13;;;;;;;20.12;43.62;101732.22;5033393;28;20052;-82
2022/09/25 01:23:43;;;;;;;5.37;3.20;;;;;;;20.09;43.19;101736.78;5031860;28;20025;-82
2022/09/25 01:26:50;;;;;;;7.37;3.17;;;;;;;19.66;44.18;101725.84;5031930;28;20097;-82
2022/09/25 01:29:21;;;;;;;6.37;3.40;;;;;;;19.82;43.93;101729.75;5031888;28;20036;-82
2022/09/25 01:31:54;;;;;;;3.60;2.97;;;;;;;19.88;43.58;101725.13;5032723;28;20037;-82
2022/09/25 01:34:25;;;;;;;;;;;;;;;19.93;43.74;101725.84;5032639;28;20144;-82
2022/09/25 01:36:57;;;;;;;6.20;3.43;;;;;;;19.67;44.48;101724.91;5032030;28;19917;-82
2022/09/25 01:39:35;;;;;;;5.78;3.50;;;;;;;19.48;44.56;101736.16;5031327;28;20485;-81
2022/09/25 01:42:30;;;;;;;7.33;3.20;;;;;;;19.45;44.99;101735.38;5031880;28;20065;-82
2022/09/25 01:45:03;;;;;;;7.83;3.30;;;;;;;19.59;44.46;101738.44;5027085;28;20053;-82
2022/09/25 01:47:32;;;;;;;7.03;3.03;;;;;;;19.58;44.27;101735.84;5031756;28;20021;-82
2022/09/25 01:50:01;;;;;;;6.53;3.20;;;;;;;19.29;45.06;101737.69;5031779;28;20043;-82
2022/09/25 01:52:51;;;;;;;7.73;2.63;;;;;;;19.67;44.12;101730.22;5031432;28;20048;-82
2022/09/25 01:55:26;;;;;;;8.63;3.30;;;;;;;19.48;44.09;101735.25;5032046;28;20034;-82
2022/09/25 01:57:58;;;;;;;8.47;4.20;;;;;;;19.59;44.14;101734.91;5037943;28;20035;-81
2022/09/25 02:00:24;;;;;;;9.60;3.50;;;;;;;19.65;44.07;101732.06;5037749;28;20121;-82
2022/09/25 02:02:58;;;;;;;9.03;4.30;;;;;;;19.55;44.32;101735.94;5038141;28;20036;-82
2022/09/25 02:05:40;;;;;;;4.57;3.10;;;;;;;19.29;45.27;101732.38;5037789;28;20029;-82
2022/09/25 02:08:24;;;;;;;3.87;2.87;;;;;;;19.66;44.07;101732.00;5038322;28;20026;-82
2022/09/25 02:10:54;;;;;;;7.00;3.07;;;;;;;19.82;43.47;101735.06;5039608;28;20275;-82
2022/09/25 02:13:23;;;;;;;8.93;3.37;;;;;;;19.46;45.17;101737.97;5037949;28;20041;-81
2022/09/25 02:15:56;;;;;;;6.13;3.40;;;;;;;19.41;44.66;101729.31;5038176;28;20107;-80
2022/09/25 02:21:06;;;;;;;3.57;3.00;;;;;;;19.69;44.39;101724.84;5038877;28;20052;-82
2022/09/25 02:23:54;;;;;;;6.00;3.17;;;;;;;19.85;43.66;101735.84;5038186;28;20034;-82
2022/09/25 02:26:28;;;;;;;8.50;3.27;;;;;;;19.82;43.46;101734.16;5038116;28;20071;-82
2022/09/25 02:28:55;;;;;;;4.90;3.03;;;;;;;19.59;44.42;101726.97;5039506;28;20044;-82
2022/09/25 02:31:24;;;;;;;4.03;2.50;;;;;;;19.81;44.16;101729.78;5037654;28;20128;-82
2022/09/25 02:33:50;;;;;;;5.93;3.27;;;;;;;19.97;43.54;101716.84;5037314;28;20029;-82
2022/09/25 02:36:18;;;;;;;4.07;2.60;;;;;;;19.98;43.40;101729.19;5038236;28;20029;-82
2022/09/25 02:38:44;;;;;;;7.50;2.80;;;;;;;19.92;43.57;101726.75;5038910;28;20029;-83
2022/09/25 02:41:31;;;;;;;4.17;2.70;;;;;;;19.78;43.86;101732.50;5037299;28;20036;-82
2022/09/25 02:44:15;;;;;;;7.53;3.30;;;;;;;19.65;43.76;101727.63;5037988;28;20032;-81
2022/09/25 02:46:51;;;;;;;6.07;3.20;;;;;;;19.40;44.70;101737.31;5038258;28;20025;-82
2022/09/25 02:49:39;;;;;;;3.90;2.33;;;;;;;19.56;44.53;101732.38;5036867;28;20594;-82
2022/09/25 02:52:26;;;;;;;5.53;3.00;;;;;;;19.58;44.57;101736.72;5037821;28;20099;-81
2022/09/25 02:55:08;;;;;;;7.17;3.20;;;;;;;19.75;44.45;101733.47;5037357;28;20171;-82
2022/09/25 02:57:47;;;;;;;7.37;3.23;;;;;;;19.69;44.57;101733.69;5038090;28;20037;-82
2022/09/25 03:00:13;;;;;;;4.60;3.37;;;;;;;19.67;44.76;101725.78;5037996;28;20033;-82
2022/09/25 03:02:41;;;;;;;8.93;3.90;;;;;;;20.06;44.16;101736.88;5037596;28;20021;-82
2022/09/25 03:05:11;;;;;;;9.47;3.70;;;;;;;20.38;43.75;101727.75;5038081;28;20033;-82
2022/09/25 03:08:36;;;;;;;6.63;3.00;;;;;;;20.03;44.49;101732.56;5035864;28;20029;-82
2022/09/25 03:10:23;;;;;;;7.77;3.53;;;;;;;20.04;44.73;101742.22;5035206;28;20035;-83
2022/09/25 03:12:48;;;;;;;7.40;3.47;;;;;;;20.12;44.12;101737.53;5034729;28;20034;-82
2022/09/25 03:15:14;;;;;;;10.23;3.63;;;;;;;20.17;44.76;101735.56;5035188;28;20040;-82
2022/09/25 03:17:40;;;;;;;10.60;3.53;;;;;;;20.46;44.09;101733.63;5033934;28;20036;-82
2022/09/25 03:20:08;;;;;;;6.43;3.63;;;;;;;20.40;44.16;101735.66;5034665;28;20415;-81
2022/09/25 03:22:34;;;;;;;7.27;3.40;;;;;;;20.67;43.03;101733.75;5034392;28;20060;-82
2022/09/25 03:24:59;;;;;;;9.43;3.30;;;;;;;20.72;44.25;101733.59;5033710;28;20033;-82
2022/09/25 03:27:27;;;;;;;8.77;3.20;;;;;;;20.22;44.30;101730.09;5034161;28;20474;-82
2022/09/25 03:29:54;;;;;;;4.90;3.03;;;;;;;20.48;44.33;101729.16;5033382;28;20056;-81
2022/09/25 03:32:19;;;;;;;7.20;3.17;;;;;;;20.65;43.85;101725.84;5034056;28;20029;-82
2022/09/25 03:34:45;;;;;;;6.73;3.67;;;;;;;20.70;43.23;101733.66;5035533;28;20032;-81
2022/09/25 03:37:10;;;;;;;6.57;2.80;;;;;;;19.63;45.79;101733.88;5034516;28;20112;-82
2022/09/25 03:39:35;;;;;;;11.17;3.80;;;;;;;19.79;46.39;101735.09;5034003;28;20035;-82
2022/09/25 03:42:01;;;;;;;4.97;3.10;;;;;;;20.37;44.72;101720.69;5033962;28;20079;-82
2022/09/25 03:44:26;;;;;;;4.93;2.80;;;;;;;20.40;44.65;101725.91;5033134;28;20406;-82
2022/09/25 03:46:51;;;;;;;8.30;3.13;;;;;;;20.63;44.45;101709.09;5033739;28;20022;-81
2022/09/25 03:49:17;;;;;;;4.83;3.37;;;;;;;20.82;43.98;101706.63;5034900;28;20091;-82
2022/09/25 03:51:42;;;;;;;6.67;3.20;;;;;;;20.91;43.95;101699.22;5032995;28;20036;-82
2022/09/25 03:54:07;;;;;;;9.18;2.88;;;;;;;21.00;43.54;101709.47;5034777;28;20037;-82
2022/09/25 03:56:33;;;;;;;5.13;2.80;;;;;;;20.86;43.95;101706.53;5033882;28;20034;-81
2022/09/25 03:58:59;;;;;;;4.90;2.60;;;;;;;21.01;43.42;101705.91;5033070;28;20104;-81
2022/09/25 04:01:25;;;;;;;5.23;2.60;;;;;;;21.04;43.14;101708.44;5034641;28;20025;-82
2022/09/25 04:03:51;;;;;;;5.93;2.45;;;;;;;20.68;43.82;101716.94;5034587;28;20025;-82
2022/09/25 04:06:19;;;;;;;11.23;3.45;;;;;;;20.76;43.82;101717.50;5033025;28;20030;-83
2022/09/25 04:08:46;;;;;;;9.27;2.80;;;;;;;20.87;43.27;101713.53;5033436;28;20457;-82
2022/09/25 04:11:13;;;;;;;4.93;2.30;;;;;;;20.67;43.78;101708.03;5034716;28;20026;-81
2022/09/25 04:13:43;;;;;;;2.50;1.93;;;;;;;20.79;43.56;101705.88;5033838;28;20037;-82
2022/09/25 04:16:09;;;;;;;4.77;2.20;;;;;;;20.64;43.58;101707.31;5033390;28;20034;-82
2022/09/25 04:18:35;;;;;;;7.03;2.20;;;;;;;20.54;43.65;101701.50;5034313;28;20155;-81
2022/09/25 04:21:06;;;;;;;7.00;2.33;;;;;;;20.45;44.00;101702.69;5032254;28;20029;-82
2022/09/25 04:23:31;;;;;;;5.77;2.40;;;;;;;20.21;44.38;101695.66;5033366;28;20029;-82
2022/09/25 04:25:57;;;;;;;5.10;2.67;;;;;;;20.18;44.35;101701.94;5034651;28;20021;-82
2022/09/25 04:28:23;;;;;;;7.70;2.60;;;;;;;20.51;44.03;101701.59;5032591;28;20057;-82
2022/09/25 04:30:49;;;;;;;6.23;2.27;;;;;;;20.33;44.38;101692.53;5033032;28;20037;-82
2022/09/25 04:36:00;;;;;;;4.23;2.10;;;;;;;20.22;44.46;101692.94;5034553;28;20052;-82
2022/09/25 04:38:26;;;;;;;7.43;3.47;;;;;;;20.65;43.77;101687.81;5033006;28;20029;-82
2022/09/25 04:40:51;;;;;;;6.07;2.37;;;;;;;20.29;44.04;101693.56;5032178;28;20033;-82
2022/09/25 04:43:17;;;;;;;7.33;2.90;;;;;;;20.32;43.99;101699.63;5032910;28;20017;-82
2022/09/25 04:45:42;;;;;;;4.47;2.17;;;;;;;20.42;43.71;101691.34;5032669;28;20045;-82
2022/09/25 04:48:08;;;;;;;8.77;2.80;;;;;;;20.21;44.32;101693.00;5032005;28;20036;-82
2022/09/25 04:50:33;;;;;;;8.80;2.47;;;;;;;20.08;44.27;101695.22;5032658;28;20083;-82
2022/09/25 04:53:00;;;;;;;7.73;2.33;;;;;;;20.24;44.05;101691.09;5032314;28;20116;-82
2022/09/25 04:55:26;;;;;;;7.33;2.70;;;;;;;20.34;44.00;101684.50;5032200;28;20032;-82
2022/09/25 04:58:00;;;;;;;6.13;2.80;;;;;;;20.06;44.53;101690.00;5032454;28;20064;-82
2022/09/25 05:00:31;;;;;;;5.60;2.37;;;;;;;20.20;44.08;101685.97;5032340;28;20040;-82
2022/09/25 05:02:57;;;;;;;4.27;2.43;;;;;;;20.12;43.92;101689.75;5031877;28;20500;-80
2022/09/25 05:05:29;;;;;;;3.77;2.33;;;;;;;19.98;44.69;101692.06;5032811;28;20029;-82
2022/09/25 05:07:59;;;;;;;6.50;3.28;;;;;;;20.02;44.23;101693.69;5032420;28;20048;-82
2022/09/25 05:10:31;;;;;;;4.63;2.27;;;;;;;20.06;44.46;101697.94;5032139;28;20103;-82
2022/09/25 05:12:59;;;;;;;7.20;2.07;;;;;;;19.86;44.49;101698.66;5032001;28;20041;-82
2022/09/25 05:15:26;;;;;;;5.73;2.50;;;;;;;19.92;44.67;101697.56;5033551;28;20030;-82
2022/09/25 05:18:20;;;;;;;4.43;2.03;;;;;;;20.06;44.59;101692.66;5032395;28;20025;-82
2022/09/25 05:20:45;;;;;;;3.95;2.55;;;;;;;19.99;44.21;101699.09;5030983;28;20037;-82
2022/09/25 05:23:12;;;;;;;9.33;2.53;;;;;;;20.10;44.20;101698.69;5031321;28;20129;-82
2022/09/25 05:25:37;;;;;;;2.97;2.07;;;;;;;20.16;44.23;101707.28;5032189;28;20060;-82
2022/09/25 05:28:03;;;;;;;5.87;2.40;;;;;;;20.11;44.71;101709.28;5033215;28;20148;-82
2022/09/25 05:30:31;;;;;;;5.70;2.57;;;;;;;20.32;44.15;101691.69;5032582;28;20040;-82
2022/09/25 05:32:59;;;;;;;8.27;2.40;;;;;;;20.41;43.71;101695.75;5033217;28;20025;-82
2022/09/25 05:35:27;;;;;;;4.20;2.30;;;;;;;20.38;43.55;101689.72;5032094;28;20075;-83
2022/09/25 05:37:53;;;;;;;7.50;2.90;;;;;;;20.17;44.43;101693.09;5032393;28;20040;-82
2022/09/25 05:40:22;;;;;;;3.87;2.30;;;;;;;19.66;45.08;101686.94;5031965;28;20033;-82
2022/09/25 05:42:48;;;;;;;6.67;2.43;;;;;;;19.81;44.85;101690.88;5033216;28;20021;-83
2022/09/25 05:45:14;;;;;;;7.80;2.90;;;;;;;19.82;44.60;101687.31;5031009;28;20092;-83
2022/09/25 05:47:41;;;;;;;6.87;2.50;;;;;;;19.94;44.81;101690.44;5032074;28;20041;-82
2022/09/25 05:50:08;;;;;;;5.07;2.47;;;;;;;19.89;44.78;101687.06;5031910;28;20080;-82
2022/09/25 05:52:34;;;;;;;9.43;2.60;;;;;;;19.94;44.63;101685.97;5031454;28;20056;-82
2022/09/25 05:55:02;;;;;;;4.27;1.80;;;;;;;19.97;44.16;101696.47;5031850;28;20036;-81
2022/09/25 05:57:30;;;;;;;2.77;2.23;;;;;;;19.68;45.03;101689.53;5031251;28;20018;-82
2022/09/25 05:59:55;;;;;;;16.47;3.13;;;;;;;19.95;44.10;101697.47;5031957;28;20470;-81
2022/09/25 06:02:20;;;;;;;6.83;2.40;;;;;;;20.10;44.03;101696.91;5032890;28;20048;-82
2022/09/25 06:04:46;;;;;;;8.37;2.40;;;;;;;20.06;44.53;101697.94;5031422;28;20115;-82
2022/09/25 06:07:11;;;;;;;4.50;2.40;;;;;;;19.88;45.43;101702.13;5031516;28;20022;-82
2022/09/25 06:09:36;;;;;;;4.17;2.30;;;;;;;20.18;45.27;101691.31;5031794;28;20021;-82
2022/09/25 06:12:02;;;;;;;11.70;2.47;;;;;;;20.11;45.79;101693.34;5032206;28;20481;-82
2022/09/25 06:14:29;;;;;;;7.27;2.83;;;;;;;20.13;45.75;101699.44;5031741;28;20120;-82
2022/09/25 06:16:54;;;;;;;5.30;2.40;;;;;;;20.56;44.99;101688.16;5031781;28;20028;-82
2022/09/25 06:19:19;;;;;;;3.93;2.20;;;;;;;20.67;45.01;101693.91;5031398;28;20033;-82
2022/09/25 06:21:46;;;;;;;7.00;2.50;;;;;;;20.88;44.50;101694.88;5031645;28;20056;-82
2022/09/25 06:24:12;;;;;;;5.20;2.30;;;;;;;20.91;44.69;101704.53;5031903;28;20021;-82
2022/09/25 06:26:38;;;;;;;3.77;2.30;;;;;;;20.95;44.66;101707.00;5031142;28;20071;-82
2022/09/25 06:29:06;;;;;;;5.05;2.15;;;;;;;20.87;44.78;101702.91;5031749;28;20111;-82
2022/09/25 06:31:32;;;;;;;3.20;2.00;;;;;;;21.33;43.83;101706.38;5032598;28;20029;-82
2022/09/25 06:33:57;;;;;;;3.55;2.10;;;;;;;21.75;43.58;101713.50;5030920;28;20032;-82
2022/09/25 06:36:23;;;;;;;8.00;2.20;;;;;;;21.92;43.77;101717.22;5031427;28;20029;-82
2022/09/25 06:38:48;;;;;;;5.18;2.22;;;;;;;21.83;43.91;101714.03;5031425;28;20021;-82
2022/09/25 06:41:13;;;;;;;4.10;1.60;;;;;;;21.70;43.64;101715.50;5031783;28;20104;-82
2022/09/25 06:43:39;;;;;;;4.50;2.17;;;;;;;21.99;43.77;101716.03;5033191;28;20017;-83
2022/09/25 06:46:05;;;;;;;4.90;2.00;;;;;;;21.83;43.97;101714.03;5035222;28;20053;-82
2022/09/25 06:48:30;;;;;;;5.75;1.80;;;;;;;21.31;44.74;101718.88;5034100;28;20152;-82
2022/09/25 06:50:59;;;;;;;9.13;2.00;;;;;;;21.46;45.39;101718.22;5034886;28;20037;-82
2022/09/25 06:53:25;;;;;;;9.38;2.30;;;;;;;21.76;44.52;101715.25;5034904;28;20028;-82
2022/09/25 06:55:52;;;;;;;8.75;2.17;;;;;;;22.13;43.03;101712.75;5035658;28;20541;-82
2022/09/25 06:58:22;;;;;;;5.05;2.10;;;;;;;22.56;43.38;101709.94;5035040;28;20022;-83
2022/09/25 07:00:50;;;;;;;4.88;1.90;;;;;;;22.32;42.53;101707.44;5035563;28;20029;-83
2022/09/25 07:06:00;;;;;;;2.95;1.77;;;;;;;22.48;42.79;101719.16;5036288;28;20520;-82
2022/09/25 07:08:26;;;;;;;6.30;2.05;;;;;;;23.01;42.56;101703.34;5034165;28;20029;-82
2022/09/25 07:10:53;;;;;;;8.00;2.10;;;;;;;22.82;43.23;101711.38;5034631;28;20037;-82
2022/09/25 07:13:24;;;;;;;8.48;1.80;;;;;;;23.34;41.83;101713.31;5034553;28;20106;-83
2022/09/25 07:16:01;;;;;;;3.90;1.75;;;;;;;23.51;41.56;101704.50;5034121;28;20029;-82
2022/09/25 07:18:28;;;;;;;12.63;2.10;;;;;;;23.50;42.30;101708.09;5035915;28;20071;-83
2022/09/25 07:21:01;;;;;;;3.70;1.98;;;;;;;23.81;41.24;101710.03;5034636;28;20032;-83
2022/09/25 07:23:27;;;;;;;3.97;2.35;;;;;;;23.85;41.29;101716.94;5033808;28;20028;-83
2022/09/25 07:25:53;;;;;;;19.58;3.15;;;;;;;23.67;42.07;101704.53;5034548;28;20428;-83
2022/09/25 07:28:19;;;;;;;10.13;2.03;;;;;;;23.61;41.85;101710.22;5034300;28;20063;-82
2022/09/25 07:30:45;;;;;;;4.53;1.67;;;;;;;22.85;42.74;101712.09;5033574;28;20501;-82
2022/09/25 07:33:11;;;;;;;5.45;1.80;;;;;;;23.29;42.81;101704.72;5034416;28;20026;-83
2022/09/25 07:35:38;;;;;;;6.40;1.70;;;;;;;23.35;42.22;101704.38;5034297;28;20048;-83
2022/09/25 07:38:04;;;;;;;6.78;2.67;;;;;;;22.71;43.42;101711.91;5034839;28;20053;-83
2022/09/25 07:40:32;;;;;;;4.05;1.85;;;;;;;23.36;42.87;101717.63;5034274;28;20441;-82
2022/09/25 07:43:01;;;;;;;12.55;2.17;;;;;;;23.81;41.40;101714.50;5034633;28;20013;-83
2022/09/25 07:45:27;;;;;;;5.70;1.60;;;;;;;25.07;40.04;101712.16;5033750;28;20048;-83
2022/09/25 07:48:01;;;;;;;9.70;2.60;;;;;;;24.65;40.11;101713.66;5034269;28;20075;-83
2022/09/25 07:50:28;;;;;;;5.93;2.10;;;;;;;25.32;38.18;101708.06;5033671;28;20033;-83
2022/09/25 07:52:53;;;;;;;7.35;1.88;;;;;;;25.78;38.55;101709.84;5033884;28;20070;-83
2022/09/25 07:55:19;;;;;;;7.40;1.73;;;;;;;26.08;37.92;101712.50;5034322;28;20392;-83
2022/09/25 07:57:45;;;;;;;6.75;1.90;;;;;;;25.37;38.96;101711.38;5033621;28;20025;-83
2022/09/25 08:00:11;;;;;;;3.63;1.80;;;;;;;23.41;41.61;101712.09;5033751;28;20197;-83
2022/09/25 08:02:37;;;;;;;7.30;1.60;;;;;;;23.94;40.94;101712.09;5033569;28;20025;-83
2022/09/25 08:05:02;;;;;;;6.85;1.77;;;;;;;23.90;41.49;101713.22;5033277;28;20021;-82
2022/09/25 08:07:28;;;;;;;7.40;1.75;;;;;;;23.40;42.18;101707.69;5033883;28;20021;-83
2022/09/25 08:09:53;;;;;;;8.15;2.05;;;;;;;24.68;39.58;101710.81;5033806;28;20028;-83
2022/09/25 08:12:25;;;;;;;6.25;2.25;;;;;;;25.18;39.68;101712.44;5032734;28;20384;-83
2022/09/25 08:14:51;;;;;;;7.07;1.30;;;;;;;24.51;39.78;101715.25;5033572;28;20030;-83
2022/09/25 08:17:17;;;;;;;10.85;1.90;;;;;;;24.34;39.96;101718.81;5033544;28;20025;-82
2022/09/25 08:19:43;;;;;;;7.00;1.50;;;;;;;24.73;39.11;101706.09;5033114;28;20022;-83
2022/09/25 08:22:08;;;;;;;6.40;1.08;;;;;;;24.51;38.59;101717.94;5034011;28;20108;-82
2022/09/25 08:24:33;;;;;;;7.38;1.10;;;;;;;23.97;38.33;101717.28;5035246;28;20167;-82
2022/09/25 08:26:59;;;;;;;7.30;1.10;;;;;;;24.07;38.35;101723.88;5036665;28;20021;-81
2022/09/25 08:29:24;;;;;;;2.75;1.00;;;;;;;24.18;38.06;101715.25;5035858;28;20021;-82
2022/09/25 08:31:50;;;;;;;9.60;1.05;;;;;;;24.61;37.57;101717.44;5035206;28;20545;-83
2022/09/25 08:34:16;;;;;;;4.30;0.98;;;;;;;24.28;37.46;101715.66;5035416;28;20025;-82
2022/09/25 08:36:42;;;;;;;6.40;1.05;;;;;;;24.56;37.79;101713.19;5034124;28;20048;-83
2022/09/25 08:39:07;;;;;;;11.85;1.38;;;;;;;24.32;38.16;101718.06;5033340;28;20075;-83
2022/09/25 08:41:56;;;;;;;4.40;0.98;;;;;;;24.96;37.68;101710.09;5032547;28;20103;-83
2022/09/25 08:44:31;;;;;;;9.40;2.28;;;;;;;24.03;38.83;101711.63;5027239;28;20116;-83
2022/09/25 08:50:09;;;;;;;6.85;2.05;;;;;;;25.14;36.86;101705.53;5034437;28;20044;-83
2022/09/25 08:52:40;;;;;;;7.88;1.20;;;;;;;23.64;38.62;101710.03;5033045;28;20033;-82
2022/09/25 08:55:15;;;;;;;5.15;1.00;;;;;;;24.56;38.33;101710.53;5032109;28;20171;-82
2022/09/25 08:57:44;;;;;;;5.35;0.95;;;;;;;25.28;36.42;101707.41;5033050;28;20040;-82
2022/09/25 09:00:19;;;;;;;7.20;0.70;;;;;;;24.90;35.93;101695.28;5032586;28;20022;-83
2022/09/25 09:02:51;;;;;;;6.95;1.00;;;;;;;25.94;35.90;101699.06;5032578;28;20034;-83
2022/09/25 09:05:31;;;;;;;3.70;0.77;;;;;;;25.79;34.83;101700.84;5032194;28;20073;-82
2022/09/25 09:08:01;;;;;;;4.78;0.70;;;;;;;25.74;35.17;101698.47;5031829;28;20032;-82
2022/09/25 09:10:38;;;;;;;4.63;1.38;;;;;;;24.99;35.38;101695.69;5032502;28;20025;-83
2022/09/25 09:13:17;;;;;;;9.68;1.75;;;;;;;25.02;35.00;101695.53;5032116;28;20489;-83
2022/09/25 09:15:51;;;;;;;9.02;1.10;;;;;;;24.21;37.31;101707.97;5031921;28;20026;-83
2022/09/25 09:18:25;;;;;;;7.55;1.10;;;;;;;24.92;35.34;101700.53;5032461;28;20025;-83
2022/09/25 09:21:06;;;;;;;5.97;0.90;;;;;;;26.16;34.29;101704.84;5032192;28;20029;-81
2022/09/25 09:23:39;;;;;;;5.88;1.10;;;;;;;26.12;33.45;101708.69;5064818;28;20095;-83
2022/09/25 09:26:30;;;;;;;4.60;0.98;;;;;;;25.42;33.64;101703.94;5032172;28;20568;-83
2022/09/25 09:29:09;;;;;;;3.10;0.60;;;;;;;27.14;32.02;101691.44;5020995;28;20075;-82
2022/09/25 09:32:06;;;;;;;7.25;0.90;;;;;;;26.41;33.42;101689.91;5032033;28;20083;-82
2022/09/25 09:35:00;;;;;;;7.53;1.02;;;;;;;27.03;31.67;101694.00;5031648;28;20083;-83
2022/09/25 09:37:48;;;;;;;7.15;0.90;;;;;;;27.20;31.49;101691.06;5031549;28;20036;-82
2022/09/25 09:40:25;;;;;;;4.18;0.90;;;;;;;26.49;33.33;101695.63;5033128;28;20021;-82
2022/09/25 09:43:13;;;;;;;8.10;1.08;;;;;;;24.43;35.57;101700.56;5032485;28;20481;-83
2022/09/25 09:45:57;;;;;;;3.58;0.77;;;;;;;24.95;35.27;101700.38;5065195;28;20045;-82
2022/09/25 09:48:47;;;;;;;5.68;0.93;;;;;;;26.09;34.36;101698.16;5032342;28;20461;-82
2022/09/25 09:51:13;;;;;;;5.55;1.17;;;;;;;25.34;34.70;101700.84;5033082;28;20024;-82
2022/09/25 09:53:45;;;;;;;3.95;0.73;;;;;;;25.54;34.81;101711.25;5032241;28;20030;-82
2022/09/25 09:56:31;;;;;;;3.45;0.60;;;;;;;25.87;34.05;101710.16;5032267;28;20029;-82
2022/09/25 09:59:00;;;;;;;8.75;1.58;;;;;;;25.61;34.98;101708.19;5031451;28;20055;-82
2022/09/25 10:01:29;;;;;;;7.88;1.48;;;;;;;25.57;34.60;101703.00;5032031;28;20032;-82
2022/09/25 10:04:13;;;;;;;9.77;1.08;;;;;;;26.10;34.97;101705.22;5031188;28;20473;-82
2022/09/25 10:06:48;;;;;;;6.85;1.48;;;;;;;25.03;35.41;101694.56;5032403;28;20038;-83
2022/09/25 10:09:15;;;;;;;5.07;0.90;;;;;;;25.80;35.67;101698.09;5031754;28;20025;-82
2022/09/25 10:11:43;;;;;;;8.05;1.00;;;;;;;27.20;32.27;101687.50;5031302;28;20185;-83
2022/09/25 10:14:19;;;;;;;4.07;0.75;;;;;;;24.96;33.14;101695.88;5032160;28;20033;-81
2022/09/25 10:16:49;;;;;;;4.00;0.65;;;;;;;26.07;32.78;101686.66;5031985;28;20079;-82
2022/09/25 10:19:27;;;;;;;1.73;0.55;;;;;;;26.18;31.62;101696.72;5034715;28;20029;-81
2022/09/25 10:22:15;;;;;;;2.30;0.73;;;;;;;25.47;32.82;101693.84;5035820;28;20120;-82
2022/09/25 10:24:52;;;;;;;3.55;0.68;;;;;;;25.86;32.08;101692.34;5035451;28;20036;-82
2022/09/25 10:27:26;;;;;;;2.90;0.60;;;;;;;25.08;33.60;101687.16;5069145;28;20029;-81
2022/09/25 10:30:04;;;;;;;4.28;1.48;;;;;;;25.44;34.71;101691.31;5035407;28;20473;-82
2022/09/25 10:32:33;;;;;;;9.30;0.70;;;;;;;25.73;33.66;101691.38;5035648;28;20534;-82
2022/09/25 10:34:59;;;;;;;1.90;0.77;;;;;;;25.80;32.37;101687.41;5035563;28;20033;-82
2022/09/25 10:37:33;;;;;;;2.38;0.57;;;;;;;26.61;30.87;101679.72;5035240;28;20104;-82
2022/09/25 10:40:06;;;;;;;4.20;0.70;;;;;;;27.21;30.71;101673.13;5034827;28;20063;-82
2022/09/25 10:42:39;;;;;;;3.17;0.70;;;;;;;26.16;30.89;101672.69;5035485;28;20035;-82
2022/09/25 10:45:31;;;;;;;1.63;0.90;;;;;;;27.34;30.29;101675.81;5036343;28;20053;-81
2022/09/25 10:50:41;;;;;;;4.07;0.70;;;;;;;25.68;31.10;101677.44;5036458;28;20044;-82
2022/09/25 10:53:27;;;;;;;1.17;0.50;;;;;;;25.84;30.62;101680.00;5034536;28;20018;-82
2022/09/25 10:56:01;;;;;;;5.35;0.60;;;;;;;26.26;32.88;101672.97;5035714;28;20032;-82
2022/09/25 10:58:50;;;;;;;1.67;0.50;;;;;;;27.46;30.27;101664.28;5036146;28;20040;-82
2022/09/25 11:01:16;;;;;;;2.50;0.50;;;;;;;27.74;28.92;101665.06;5034217;28;20512;-82
2022/09/25 11:03:53;;;;;;;2.40;0.63;;;;;;;27.69;28.96;101659.16;5034850;28;20469;-82
2022/09/25 11:06:31;;;;;;;3.75;0.90;;;;;;;25.49;34.13;101667.81;5034497;28;20482;-81
2022/09/25 11:09:13;;;;;;;4.72;0.80;;;;;;;24.73;35.52;101663.31;5033858;28;20021;-81
2022/09/25 11:11:40;;;;;;;3.47;1.20;;;;;;;23.86;36.87;101667.97;5034567;28;20056;-82
2022/09/25 11:14:17;;;;;;;4.10;1.10;;;;;;;25.11;35.95;101668.25;5033916;28;20474;-80
2022/09/25 11:16:54;;;;;;;3.42;0.75;;;;;;;25.25;35.01;101659.41;5034414;28;20057;-81
2022/09/25 11:19:23;;;;;;;2.75;0.52;;;;;;;24.21;37.37;101672.38;5034536;28;20056;-81
2022/09/25 11:22:06;;;;;;;4.78;0.70;;;;;;;24.35;36.98;101663.63;5033927;28;20079;-81
2022/09/25 11:24:50;;;;;;;2.88;1.15;;;;;;;24.30;36.71;101665.66;5034281;28;20428;-81
2022/09/25 11:27:22;;;;;;;2.72;0.70;;;;;;;23.96;37.41;101662.16;5034046;28;20068;-81
2022/09/25 11:30:00;;;;;;;2.70;0.60;;;;;;;23.96;37.94;101668.38;5065885;28;20489;-81
2022/09/25 11:32:49;;;;;;;2.70;0.98;;;;;;;24.09;37.59;101668.56;5034255;28;20033;-81
2022/09/25 11:35:36;;;;;;;3.80;0.80;;;;;;;24.25;37.69;101651.69;5033956;28;20040;-81
2022/09/25 11:41:10;;;;;;;2.20;0.88;;;;;;;24.68;36.88;101647.53;5034135;28;20029;-81
2022/09/25 11:41:30;;;;;;;3.10;1.65;;;;;;;23.72;37.80;101641.13;5035212;28;20053;-81
2022/09/25 11:44:09;;;;;;;4.07;1.17;;;;;;;25.26;34.62;101641.56;5034662;28;20022;-81
2022/09/25 11:46:49;;;;;;;4.05;0.85;;;;;;;25.27;34.38;101637.94;5067276;28;20044;-81
2022/09/25 11:49:25;;;;;;;4.45;0.52;;;;;;;25.44;33.72;101634.28;5033576;28;20025;-82
2022/09/25 11:52:08;;;;;;;2.92;1.02;;;;;;;25.24;33.44;101641.66;5033973;28;20116;-82
2022/09/25 11:54:34;;;;;;;;;;;;;;;24.78;33.53;101637.16;5034097;28;20124;-81
2022/09/25 11:57:15;;;;;;;5.68;0.60;;;;;;;26.27;31.54;101630.97;5066610;28;19915;-81